createdAt,value
2022-08-26T00:00:52.078Z,0.00
2022-08-26T00:01:52.296Z,0.00
2022-08-26T00:02:52.467Z,0.00
2022-08-26T00:03:52.521Z,0.00
2022-08-26T00:04:52.627Z,0.00
2022-08-26T00:05:52.770Z,0.00
2022-08-26T00:06:52.917Z,0.00
2022-08-26T00:07:53.104Z,0.00
2022-08-26T00:08:53.186Z,0.00
2022-08-26T00:09:54.344Z,0.00
2022-08-26T00:10:53.516Z,0.00
2022-08-26T00:11:53.576Z,0.00
2022-08-26T00:12:53.717Z,0.00
2022-08-26T00:13:53.864Z,0.00
2022-08-26T00:14:53.986Z,0.00
2022-08-26T00:15:54.356Z,0.00
2022-08-26T00:16:55.199Z,0.00
2022-08-26T00:17:54.397Z,0.00
2022-08-26T00:18:54.697Z,0.00
2022-08-26T00:19:54.676Z,0.00
2022-08-26T00:20:54.846Z,0.00
2022-08-26T00:21:54.923Z,0.00
2022-08-26T00:22:55.054Z,0.00
2022-08-26T00:23:55.175Z,0.00
2022-08-26T00:24:55.456Z,0.00
2022-08-26T00:25:55.433Z,0.00
2022-08-26T00:26:55.588Z,0.00
2022-08-26T00:27:55.696Z,0.00
2022-08-26T00:28:55.825Z,0.00
2022-08-26T00:29:56.074Z,0.00
2022-08-26T00:30:56.254Z,0.00
2022-08-26T00:31:56.292Z,0.00
2022-08-26T00:32:56.392Z,0.00
2022-08-26T00:33:56.505Z,0.00
2022-08-26T00:34:56.704Z,0.00
2022-08-26T00:35:56.909Z,0.00
2022-08-26T00:36:56.918Z,0.00
2022-08-26T00:37:57.004Z,0.00
2022-08-26T00:38:57.134Z,0.00
2022-08-26T00:39:57.459Z,0.00
2022-08-26T00:40:57.399Z,0.00
2022-08-26T00:41:57.526Z,0.00
2022-08-26T00:42:57.633Z,0.00
2022-08-26T00:43:57.764Z,0.00
2022-08-26T00:44:57.953Z,0.00
2022-08-26T00:45:58.259Z,0.00
2022-08-26T00:46:58.187Z,0.00
2022-08-26T00:47:58.296Z,0.00
2022-08-26T00:48:58.432Z,0.00
2022-08-26T00:49:58.752Z,0.00
2022-08-26T00:50:58.682Z,0.00
2022-08-26T00:51:58.842Z,0.00
2022-08-26T00:52:58.958Z,0.00
2022-08-26T00:53:59.082Z,0.00
2022-08-26T00:54:59.291Z,0.00
2022-08-26T00:55:59.383Z,0.00
2022-08-26T00:56:59.874Z,0.00
2022-08-26T00:57:59.579Z,0.00
2022-08-26T00:58:59.713Z,0.00
2022-08-26T00:59:59.919Z,0.00
2022-08-26T01:00:59.998Z,0.00
2022-08-26T01:02:00.245Z,0.00
2022-08-26T01:03:00.210Z,0.00
2022-08-26T01:04:00.373Z,0.00
2022-08-26T01:05:00.568Z,0.00
2022-08-26T01:06:00.600Z,0.00
2022-08-26T01:07:00.815Z,0.00
2022-08-26T01:08:00.878Z,0.00
2022-08-26T01:09:00.980Z,0.00
2022-08-26T01:10:01.109Z,0.00
2022-08-26T01:11:01.229Z,0.00
2022-08-26T01:12:01.645Z,0.00
2022-08-26T01:13:01.571Z,0.00
2022-08-26T01:14:01.639Z,0.00
2022-08-26T01:15:01.779Z,0.00
2022-08-26T01:16:01.932Z,0.00
2022-08-26T01:17:02.158Z,0.00
2022-08-26T01:18:02.209Z,0.00
2022-08-26T01:19:02.302Z,0.00
2022-08-26T01:20:02.514Z,0.00
2022-08-26T01:21:02.566Z,0.00
2022-08-26T01:22:02.746Z,0.00
2022-08-26T01:23:03.150Z,0.00
2022-08-26T01:24:02.958Z,0.00
2022-08-26T01:25:03.461Z,0.00
2022-08-26T01:26:03.201Z,0.00
2022-08-26T01:27:03.387Z,0.00
2022-08-26T01:28:03.436Z,0.00
2022-08-26T01:29:03.566Z,0.00
2022-08-26T01:30:03.700Z,0.00
2022-08-26T01:31:03.837Z,0.00
2022-08-26T01:32:04.995Z,0.00
2022-08-26T01:33:04.114Z,0.00
2022-08-26T01:34:04.216Z,0.00
2022-08-26T01:35:04.336Z,0.00
2022-08-26T01:36:04.468Z,0.00
2022-08-26T01:37:04.646Z,0.00
2022-08-26T01:38:04.725Z,0.00
2022-08-26T01:39:05.905Z,0.00
2022-08-26T01:40:05.018Z,0.00
2022-08-26T01:41:15.997Z,0.00
2022-08-26T01:42:06.265Z,0.00
2022-08-26T01:43:05.521Z,0.00
2022-08-26T01:44:05.503Z,0.00
2022-08-26T01:45:05.635Z,0.00
2022-08-26T01:46:05.877Z,0.00
2022-08-26T01:47:06.550Z,0.00
2022-08-26T01:48:05.995Z,0.00
2022-08-26T01:49:06.452Z,0.00
2022-08-26T01:50:06.252Z,0.00
2022-08-26T01:51:06.624Z,0.00
2022-08-26T01:52:06.515Z,0.00
2022-08-26T01:53:06.909Z,0.00
2022-08-26T01:54:06.768Z,0.00
2022-08-26T01:55:07.914Z,0.00
2022-08-26T01:56:07.123Z,0.00
2022-08-26T01:57:07.256Z,0.00
2022-08-26T01:58:07.294Z,0.00
2022-08-26T01:59:07.423Z,0.00
2022-08-26T02:00:07.533Z,0.00
2022-08-26T02:01:07.704Z,0.00
2022-08-26T02:02:07.922Z,0.00
2022-08-26T02:03:08.124Z,0.00
2022-08-26T02:04:08.093Z,0.00
2022-08-26T02:05:08.204Z,0.00
2022-08-26T02:06:09.190Z,0.00
2022-08-26T02:07:08.530Z,0.00
2022-08-26T02:08:08.601Z,0.00
2022-08-26T02:09:08.820Z,0.00
2022-08-26T02:10:08.875Z,0.00
2022-08-26T02:11:08.994Z,0.00
2022-08-26T02:12:09.152Z,0.00
2022-08-26T02:13:09.262Z,0.00
2022-08-26T02:14:09.521Z,0.00
2022-08-26T02:15:09.521Z,0.00
2022-08-26T02:16:09.659Z,0.00
2022-08-26T02:17:09.761Z,0.00
2022-08-26T02:18:09.901Z,0.00
2022-08-26T02:19:10.093Z,0.00
2022-08-26T02:20:13.442Z,0.00
2022-08-26T02:21:10.290Z,0.00
2022-08-26T02:22:10.420Z,0.00
2022-08-26T02:23:10.735Z,0.00
2022-08-26T02:24:10.699Z,0.00
2022-08-26T02:25:10.830Z,0.00
2022-08-26T02:26:10.949Z,0.00
2022-08-26T02:27:11.069Z,0.00
2022-08-26T02:28:11.330Z,0.00
2022-08-26T02:29:11.349Z,0.00
2022-08-26T02:30:11.438Z,0.00
2022-08-26T02:31:11.593Z,0.00
2022-08-26T02:32:11.708Z,0.00
2022-08-26T02:33:12.010Z,0.00
2022-08-26T02:34:11.977Z,0.00
2022-08-26T02:35:12.107Z,0.00
2022-08-26T02:36:13.402Z,0.00
2022-08-26T02:37:12.358Z,0.00
2022-08-26T02:38:12.526Z,0.00
2022-08-26T02:39:15.017Z,0.00
2022-08-26T02:40:12.818Z,0.00
2022-08-26T02:41:12.897Z,0.00
2022-08-26T02:42:13.068Z,0.00
2022-08-26T02:43:13.217Z,0.00
2022-08-26T02:44:13.290Z,0.00
2022-08-26T02:45:13.415Z,0.00
2022-08-26T02:46:21.452Z,0.00
2022-08-26T02:47:14.806Z,0.00
2022-08-26T02:48:13.940Z,0.00
2022-08-26T02:49:13.918Z,0.00
2022-08-26T02:50:14.057Z,0.00
2022-08-26T02:51:14.186Z,0.00
2022-08-26T02:52:14.307Z,0.00
2022-08-26T02:53:14.597Z,0.00
2022-08-26T02:54:14.574Z,0.00
2022-08-26T02:55:14.717Z,0.00
2022-08-26T02:56:14.856Z,0.00
2022-08-26T02:57:14.986Z,0.00
2022-08-26T02:58:15.276Z,0.00
2022-08-26T02:59:15.382Z,0.00
2022-08-26T03:00:15.375Z,0.00
2022-08-26T03:01:15.560Z,0.00
2022-08-26T03:02:15.716Z,0.00
2022-08-26T03:03:15.863Z,0.00
2022-08-26T03:04:15.893Z,0.00
2022-08-26T03:05:16.043Z,0.00
2022-08-26T03:06:16.163Z,0.00
2022-08-26T03:07:16.307Z,0.00
2022-08-26T03:08:16.515Z,0.00
2022-08-26T03:09:18.905Z,0.00
2022-08-26T03:10:16.695Z,0.00
2022-08-26T03:11:16.832Z,0.00
2022-08-26T03:12:16.983Z,0.00
2022-08-26T03:13:17.236Z,0.00
2022-08-26T03:14:17.462Z,0.00
2022-08-26T03:15:18.367Z,0.00
2022-08-26T03:16:17.509Z,0.00
2022-08-26T03:17:17.603Z,0.00
2022-08-26T03:18:17.783Z,0.00
2022-08-26T03:19:17.993Z,0.00
2022-08-26T03:20:18.013Z,0.00
2022-08-26T03:21:18.103Z,0.00
2022-08-26T03:22:18.242Z,0.00
2022-08-26T03:23:18.601Z,0.00
2022-08-26T03:24:18.512Z,0.00
2022-08-26T03:25:18.610Z,0.00
2022-08-26T03:26:18.739Z,0.00
2022-08-26T03:27:18.869Z,0.00
2022-08-26T03:28:19.294Z,0.00
2022-08-26T03:29:19.174Z,0.00
2022-08-26T03:30:19.263Z,0.00
2022-08-26T03:31:19.445Z,0.00
2022-08-26T03:32:20.550Z,0.00
2022-08-26T03:33:19.660Z,0.00
2022-08-26T03:34:19.861Z,0.00
2022-08-26T03:35:19.956Z,0.00
2022-08-26T03:36:20.052Z,0.00
2022-08-26T03:37:20.197Z,0.00
2022-08-26T03:38:20.312Z,0.00
2022-08-26T03:39:20.469Z,0.00
2022-08-26T03:40:20.865Z,0.00
2022-08-26T03:41:20.709Z,0.00
2022-08-26T03:42:21.466Z,0.00
2022-08-26T03:43:20.969Z,0.00
2022-08-26T03:44:21.192Z,0.00
2022-08-26T03:45:21.261Z,0.00
2022-08-26T03:46:21.398Z,0.00
2022-08-26T03:47:21.487Z,0.00
2022-08-26T03:48:21.580Z,0.00
2022-08-26T03:49:21.818Z,0.00
2022-08-26T03:50:22.690Z,0.00
2022-08-26T03:51:21.968Z,0.00
2022-08-26T03:52:22.168Z,0.00
2022-08-26T03:53:22.208Z,0.00
2022-08-26T03:54:22.377Z,0.00
2022-08-26T03:55:23.775Z,0.00
2022-08-26T03:56:22.587Z,0.00
2022-08-26T03:57:22.735Z,0.00
2022-08-26T03:58:22.857Z,0.00
2022-08-26T03:59:23.067Z,0.00
2022-08-26T04:00:23.137Z,0.00
2022-08-26T04:01:23.272Z,0.00
2022-08-26T04:02:23.396Z,0.00
2022-08-26T04:03:23.589Z,0.00
2022-08-26T04:04:24.470Z,0.00
2022-08-26T04:05:23.923Z,0.00
2022-08-26T04:06:23.886Z,0.00
2022-08-26T04:07:24.008Z,0.00
2022-08-26T04:08:24.166Z,0.00
2022-08-26T04:09:24.464Z,0.00
2022-08-26T04:10:29.208Z,0.00
2022-08-26T04:11:25.525Z,0.00
2022-08-26T04:12:24.711Z,0.00
2022-08-26T04:13:24.794Z,0.00
2022-08-26T04:14:24.984Z,0.00
2022-08-26T04:15:25.133Z,0.00
2022-08-26T04:16:25.286Z,0.00
2022-08-26T04:17:25.336Z,0.00
2022-08-26T04:18:25.495Z,0.00
2022-08-26T04:19:26.852Z,0.00
2022-08-26T04:20:25.753Z,0.00
2022-08-26T04:21:25.853Z,0.00
2022-08-26T04:22:25.966Z,0.00
2022-08-26T04:23:26.107Z,0.00
2022-08-26T04:24:26.243Z,0.00
2022-08-26T04:25:26.503Z,0.00
2022-08-26T04:26:26.516Z,0.00
2022-08-26T04:27:26.629Z,0.00
2022-08-26T04:28:26.751Z,0.00
2022-08-26T04:29:26.865Z,0.00
2022-08-26T04:30:27.160Z,0.00
2022-08-26T04:31:27.184Z,0.00
2022-08-26T04:32:27.303Z,0.00
2022-08-26T04:33:32.256Z,0.00
2022-08-26T04:34:28.960Z,0.00
2022-08-26T04:35:27.850Z,0.00
2022-08-26T04:36:27.751Z,0.00
2022-08-26T04:37:27.912Z,0.00
2022-08-26T04:38:28.061Z,0.00
2022-08-26T04:39:28.095Z,0.00
2022-08-26T04:40:28.266Z,0.00
2022-08-26T04:41:28.332Z,0.00
2022-08-26T04:42:28.480Z,0.00
2022-08-26T04:43:28.789Z,0.00
2022-08-26T04:44:28.706Z,0.00
2022-08-26T04:45:28.839Z,0.00
2022-08-26T04:46:29.104Z,5.62
2022-08-26T04:47:32.215Z,5.62
2022-08-26T04:48:29.251Z,5.62
2022-08-26T04:49:29.329Z,5.62
2022-08-26T04:50:30.479Z,5.62
2022-08-26T04:51:29.601Z,5.62
2022-08-26T04:52:29.940Z,5.62
2022-08-26T04:53:29.879Z,5.62
2022-08-26T04:54:29.968Z,11.25
2022-08-26T04:55:38.715Z,11.25
2022-08-26T04:56:31.269Z,11.25
2022-08-26T04:57:30.530Z,11.25
2022-08-26T04:58:30.517Z,11.25
2022-08-26T04:59:30.659Z,11.25
2022-08-26T05:00:30.799Z,11.25
2022-08-26T05:01:30.974Z,11.25
2022-08-26T05:02:31.176Z,16.88
2022-08-26T05:03:31.338Z,16.88
2022-08-26T05:04:31.320Z,11.25
2022-08-26T05:05:31.457Z,16.88
2022-08-26T05:06:31.587Z,16.88
2022-08-26T05:07:32.747Z,16.88
2022-08-26T05:08:31.988Z,16.88
2022-08-26T05:09:32.008Z,16.88
2022-08-26T05:10:32.146Z,16.88
2022-08-26T05:11:32.287Z,22.50
2022-08-26T05:12:32.444Z,22.50
2022-08-26T05:13:32.738Z,22.50
2022-08-26T05:14:32.696Z,22.50
2022-08-26T05:15:32.796Z,28.12
2022-08-26T05:16:32.926Z,28.12
2022-08-26T05:17:33.087Z,33.75
2022-08-26T05:18:33.328Z,28.12
2022-08-26T05:19:33.449Z,22.50
2022-08-26T05:20:33.435Z,22.50
2022-08-26T05:21:33.535Z,28.12
2022-08-26T05:22:33.675Z,33.75
2022-08-26T05:23:33.936Z,39.38
2022-08-26T05:24:33.927Z,45.00
2022-08-26T05:25:34.079Z,50.62
2022-08-26T05:26:34.225Z,50.62
2022-08-26T05:27:34.345Z,50.62
2022-08-26T05:28:34.555Z,45.00
2022-08-26T05:29:34.625Z,39.38
2022-08-26T05:30:34.713Z,39.38
2022-08-26T05:31:34.905Z,39.38
2022-08-26T05:32:35.092Z,33.75
2022-08-26T05:33:35.159Z,39.38
2022-08-26T05:34:35.304Z,39.38
2022-08-26T05:35:35.364Z,39.38
2022-08-26T05:36:35.584Z,45.00
2022-08-26T05:37:35.644Z,39.38
2022-08-26T05:38:35.791Z,39.38
2022-08-26T05:39:36.124Z,33.75
2022-08-26T05:40:36.143Z,33.75
2022-08-26T05:41:38.470Z,33.75
2022-08-26T05:42:36.349Z,39.38
2022-08-26T05:43:36.453Z,39.38
2022-08-26T05:44:53.747Z,45.00
2022-08-26T05:45:39.439Z,56.25
2022-08-26T05:46:36.905Z,56.25
2022-08-26T05:47:36.973Z,56.25
2022-08-26T05:48:37.125Z,56.25
2022-08-26T05:49:37.402Z,56.25
2022-08-26T05:50:38.371Z,56.25
2022-08-26T05:51:37.521Z,50.62
2022-08-26T05:52:37.651Z,56.25
2022-08-26T05:53:37.742Z,56.25
2022-08-26T05:54:38.281Z,50.62
2022-08-26T05:55:38.021Z,45.00
2022-08-26T05:56:38.162Z,45.00
2022-08-26T05:57:42.839Z,45.00
2022-08-26T05:58:38.424Z,45.00
2022-08-26T05:59:38.572Z,45.00
2022-08-26T06:00:38.643Z,45.00
2022-08-26T06:01:38.823Z,45.00
2022-08-26T06:02:38.966Z,50.62
2022-08-26T06:03:39.043Z,50.62
2022-08-26T06:04:39.247Z,56.25
2022-08-26T06:05:39.488Z,56.25
2022-08-26T06:06:39.480Z,50.62
2022-08-26T06:07:39.590Z,50.62
2022-08-26T06:08:39.719Z,56.25
2022-08-26T06:09:39.930Z,61.88
2022-08-26T06:10:39.920Z,50.62
2022-08-26T06:11:40.067Z,50.62
2022-08-26T06:12:40.168Z,50.62
2022-08-26T06:13:40.300Z,50.62
2022-08-26T06:14:40.767Z,50.62
2022-08-26T06:15:42.032Z,50.62
2022-08-26T06:16:40.706Z,50.62
2022-08-26T06:17:40.858Z,45.00
2022-08-26T06:18:41.055Z,50.62
2022-08-26T06:19:41.345Z,50.62
2022-08-26T06:20:41.357Z,56.25
2022-08-26T06:21:41.332Z,61.88
2022-08-26T06:22:41.448Z,73.12
2022-08-26T06:23:41.569Z,84.38
2022-08-26T06:24:41.749Z,78.75
2022-08-26T06:25:41.827Z,73.12
2022-08-26T06:26:42.816Z,78.75
2022-08-26T06:27:42.197Z,84.38
2022-08-26T06:28:43.600Z,84.38
2022-08-26T06:29:42.316Z,78.75
2022-08-26T06:30:42.536Z,84.38
2022-08-26T06:31:42.598Z,101.25
2022-08-26T06:32:42.786Z,106.88
2022-08-26T06:33:42.851Z,95.62
2022-08-26T06:34:42.945Z,95.62
2022-08-26T06:35:43.077Z,101.25
2022-08-26T06:36:43.894Z,106.88
2022-08-26T06:37:43.475Z,118.12
2022-08-26T06:38:43.475Z,129.38
2022-08-26T06:39:43.515Z,129.38
2022-08-26T06:40:43.683Z,118.12
2022-08-26T06:41:43.824Z,123.75
2022-08-26T06:42:44.095Z,129.38
2022-08-26T06:43:44.164Z,135.00
2022-08-26T06:44:44.757Z,146.25
2022-08-26T06:45:44.282Z,140.62
2022-08-26T06:46:44.506Z,112.50
2022-08-26T06:47:44.781Z,101.25
2022-08-26T06:48:44.603Z,95.62
2022-08-26T06:49:44.713Z,95.62
2022-08-26T06:50:44.854Z,95.62
2022-08-26T06:51:44.983Z,101.25
2022-08-26T06:52:45.322Z,101.25
2022-08-26T06:53:45.394Z,95.62
2022-08-26T06:54:45.382Z,95.62
2022-08-26T06:55:45.520Z,106.88
2022-08-26T06:56:45.672Z,112.50
2022-08-26T06:57:45.774Z,123.75
2022-08-26T06:58:46.012Z,135.00
2022-08-26T06:59:46.031Z,123.75
2022-08-26T07:00:47.460Z,129.38
2022-08-26T07:01:46.349Z,135.00
2022-08-26T07:02:46.381Z,135.00
2022-08-26T07:03:46.747Z,129.38
2022-08-26T07:04:47.723Z,135.00
2022-08-26T07:05:46.771Z,140.62
2022-08-26T07:06:46.880Z,151.88
2022-08-26T07:07:47.044Z,163.12
2022-08-26T07:08:47.260Z,157.50
2022-08-26T07:09:47.380Z,151.88
2022-08-26T07:10:48.448Z,168.75
2022-08-26T07:11:47.512Z,213.75
2022-08-26T07:12:47.650Z,219.38
2022-08-26T07:13:47.801Z,230.62
2022-08-26T07:14:48.158Z,230.62
2022-08-26T07:15:48.139Z,241.88
2022-08-26T07:16:49.129Z,253.12
2022-08-26T07:17:48.230Z,236.25
2022-08-26T07:18:48.539Z,253.12
2022-08-26T07:19:48.468Z,258.75
2022-08-26T07:20:48.579Z,264.38
2022-08-26T07:21:48.679Z,264.38
2022-08-26T07:22:48.849Z,247.50
2022-08-26T07:23:49.156Z,225.00
2022-08-26T07:24:49.077Z,230.62
2022-08-26T07:25:49.248Z,191.25
2022-08-26T07:26:49.349Z,174.38
2022-08-26T07:27:53.890Z,213.75
2022-08-26T07:28:50.647Z,241.88
2022-08-26T07:29:49.738Z,219.38
2022-08-26T07:30:49.907Z,191.25
2022-08-26T07:31:49.978Z,168.75
2022-08-26T07:32:50.118Z,168.75
2022-08-26T07:33:50.327Z,196.88
2022-08-26T07:34:50.499Z,196.88
2022-08-26T07:35:50.489Z,180.00
2022-08-26T07:36:50.607Z,185.62
2022-08-26T07:37:55.074Z,191.25
2022-08-26T07:38:51.969Z,185.62
2022-08-26T07:39:51.034Z,196.88
2022-08-26T07:40:51.078Z,196.88
2022-08-26T07:41:51.219Z,208.12
2022-08-26T07:42:51.349Z,196.88
2022-08-26T07:43:51.448Z,180.00
2022-08-26T07:44:52.246Z,185.62
2022-08-26T07:45:51.682Z,191.25
2022-08-26T07:46:53.166Z,202.50
2022-08-26T07:47:51.953Z,230.62
2022-08-26T07:48:52.056Z,253.12
2022-08-26T07:49:52.826Z,236.25
2022-08-26T07:50:52.295Z,202.50
2022-08-26T07:51:52.382Z,185.62
2022-08-26T07:52:52.545Z,191.25
2022-08-26T07:53:53.158Z,202.50
2022-08-26T07:54:52.836Z,219.38
2022-08-26T07:55:52.874Z,247.50
2022-08-26T07:56:53.023Z,264.38
2022-08-26T07:57:53.138Z,270.00
2022-08-26T07:58:53.345Z,292.50
2022-08-26T07:59:54.062Z,298.12
2022-08-26T08:00:53.533Z,298.12
2022-08-26T08:01:53.702Z,270.00
2022-08-26T08:02:53.761Z,320.62
2022-08-26T08:03:53.874Z,320.62
2022-08-26T08:04:54.074Z,320.62
2022-08-26T08:05:54.113Z,343.12
2022-08-26T08:06:54.272Z,371.25
2022-08-26T08:07:54.383Z,405.00
2022-08-26T08:08:55.483Z,421.88
2022-08-26T08:09:54.848Z,399.38
2022-08-26T08:10:54.778Z,348.75
2022-08-26T08:11:54.864Z,331.88
2022-08-26T08:12:55.022Z,309.38
2022-08-26T08:13:56.425Z,382.50
2022-08-26T08:14:55.272Z,472.50
2022-08-26T08:15:55.409Z,517.50
2022-08-26T08:16:55.560Z,472.50
2022-08-26T08:17:58.854Z,444.38
2022-08-26T08:18:55.801Z,472.50
2022-08-26T08:19:55.932Z,528.75
2022-08-26T08:21:10.886Z,573.75
2022-08-26T08:21:57.190Z,545.62
2022-08-26T08:22:56.220Z,461.25
2022-08-26T08:23:56.334Z,421.88
2022-08-26T08:24:56.472Z,382.50
2022-08-26T08:25:56.590Z,365.62
2022-08-26T08:26:56.680Z,315.00
2022-08-26T08:27:57.032Z,315.00
2022-08-26T08:28:56.950Z,292.50
2022-08-26T08:29:57.043Z,354.38
2022-08-26T08:30:57.260Z,421.88
2022-08-26T08:31:58.115Z,466.88
2022-08-26T08:32:57.597Z,427.50
2022-08-26T08:33:57.558Z,421.88
2022-08-26T08:34:57.743Z,438.75
2022-08-26T08:35:57.834Z,489.38
2022-08-26T08:36:57.999Z,528.75
2022-08-26T08:37:58.210Z,517.50
2022-08-26T08:38:58.278Z,528.75
2022-08-26T08:39:58.340Z,478.12
2022-08-26T08:40:58.440Z,438.75
2022-08-26T08:41:58.649Z,450.00
2022-08-26T08:42:58.832Z,461.25
2022-08-26T08:43:58.818Z,466.88
2022-08-26T08:44:58.919Z,495.00
2022-08-26T08:45:59.867Z,461.25
2022-08-26T08:46:59.229Z,410.62
2022-08-26T08:47:59.497Z,376.88
2022-08-26T08:48:59.527Z,354.38
2022-08-26T08:49:59.636Z,337.50
2022-08-26T08:50:59.765Z,354.38
2022-08-26T08:51:59.897Z,331.88
2022-08-26T08:53:00.196Z,309.38
2022-08-26T08:54:00.146Z,303.75
2022-08-26T08:55:00.298Z,298.12
2022-08-26T08:56:00.459Z,303.75
2022-08-26T08:57:00.602Z,281.25
2022-08-26T08:58:02.432Z,258.75
2022-08-26T08:59:00.906Z,253.12
2022-08-26T09:00:00.967Z,292.50
2022-08-26T09:01:01.092Z,253.12
2022-08-26T09:02:01.255Z,241.88
2022-08-26T09:03:01.476Z,230.62
2022-08-26T09:04:01.475Z,230.62
2022-08-26T09:05:01.541Z,247.50
2022-08-26T09:06:01.642Z,275.62
2022-08-26T09:07:01.801Z,258.75
2022-08-26T09:08:01.987Z,241.88
2022-08-26T09:09:02.095Z,230.62
2022-08-26T09:10:02.224Z,230.62
2022-08-26T09:11:02.275Z,213.75
2022-08-26T09:12:02.374Z,185.62
2022-08-26T09:13:02.670Z,174.38
2022-08-26T09:14:02.614Z,202.50
2022-08-26T09:15:02.775Z,236.25
2022-08-26T09:16:02.864Z,230.62
2022-08-26T09:17:02.988Z,241.88
2022-08-26T09:18:05.760Z,281.25
2022-08-26T09:19:03.362Z,275.62
2022-08-26T09:20:03.364Z,281.25
2022-08-26T09:21:03.533Z,264.38
2022-08-26T09:22:08.770Z,258.75
2022-08-26T09:23:04.882Z,253.12
2022-08-26T09:24:04.102Z,258.75
2022-08-26T09:25:03.994Z,253.12
2022-08-26T09:26:04.107Z,225.00
2022-08-26T09:27:04.263Z,213.75
2022-08-26T09:28:04.453Z,241.88
2022-08-26T09:29:04.634Z,275.62
2022-08-26T09:30:04.640Z,309.38
2022-08-26T09:31:07.937Z,360.00
2022-08-26T09:32:05.883Z,376.88
2022-08-26T09:33:10.060Z,354.38
2022-08-26T09:34:06.242Z,326.25
2022-08-26T09:35:06.149Z,354.38
2022-08-26T09:36:05.341Z,376.88
2022-08-26T09:37:05.451Z,354.38
2022-08-26T09:38:07.022Z,331.88
2022-08-26T09:39:05.782Z,309.38
2022-08-26T09:40:05.839Z,303.75
2022-08-26T09:41:05.862Z,303.75
2022-08-26T09:42:06.012Z,331.88
2022-08-26T09:43:06.150Z,343.12
2022-08-26T09:44:06.332Z,348.75
2022-08-26T09:45:06.388Z,343.12
2022-08-26T09:46:06.690Z,326.25
2022-08-26T09:47:06.600Z,326.25
2022-08-26T09:48:06.757Z,343.12
2022-08-26T09:49:06.849Z,365.62
2022-08-26T09:50:09.942Z,371.25
2022-08-26T09:51:08.129Z,371.25
2022-08-26T09:52:07.219Z,382.50
2022-08-26T09:53:09.815Z,405.00
2022-08-26T09:54:08.469Z,416.25
2022-08-26T09:55:07.580Z,416.25
2022-08-26T09:56:07.798Z,416.25
2022-08-26T09:57:07.860Z,416.25
2022-08-26T09:58:08.915Z,421.88
2022-08-26T09:59:08.169Z,438.75
2022-08-26T10:00:08.229Z,455.62
2022-08-26T10:01:08.545Z,472.50
2022-08-26T10:02:12.226Z,495.00
2022-08-26T10:03:08.829Z,523.12
2022-08-26T10:04:08.812Z,523.12
2022-08-26T10:05:09.609Z,472.50
2022-08-26T10:06:09.073Z,528.75
2022-08-26T10:07:09.178Z,607.50
2022-08-26T10:08:09.307Z,630.00
2022-08-26T10:09:10.831Z,596.25
2022-08-26T10:10:09.561Z,511.88
2022-08-26T10:11:09.669Z,393.75
2022-08-26T10:12:09.979Z,382.50
2022-08-26T10:13:10.172Z,472.50
2022-08-26T10:14:09.997Z,500.62
2022-08-26T10:15:10.157Z,461.25
2022-08-26T10:16:10.774Z,466.88
2022-08-26T10:17:10.436Z,461.25
2022-08-26T10:18:10.719Z,438.75
2022-08-26T10:19:10.696Z,421.88
2022-08-26T10:20:23.269Z,472.50
2022-08-26T10:21:11.836Z,472.50
2022-08-26T10:22:10.997Z,495.00
2022-08-26T10:23:11.345Z,478.12
2022-08-26T10:24:11.499Z,472.50
2022-08-26T10:25:11.356Z,489.38
2022-08-26T10:26:11.466Z,500.62
2022-08-26T10:27:11.599Z,534.38
2022-08-26T10:28:11.881Z,556.88
2022-08-26T10:29:11.856Z,568.12
2022-08-26T10:30:11.925Z,573.75
2022-08-26T10:31:12.066Z,517.50
2022-08-26T10:32:13.726Z,466.88
2022-08-26T10:33:13.116Z,427.50
2022-08-26T10:34:13.989Z,388.12
2022-08-26T10:35:12.574Z,371.25
2022-08-26T10:36:15.323Z,365.62
2022-08-26T10:37:16.255Z,365.62
2022-08-26T10:38:12.918Z,393.75
2022-08-26T10:39:13.195Z,405.00
2022-08-26T10:40:13.259Z,410.62
2022-08-26T10:41:13.296Z,393.75
2022-08-26T10:42:13.416Z,376.88
2022-08-26T10:43:13.514Z,388.12
2022-08-26T10:44:13.674Z,382.50
2022-08-26T10:45:15.187Z,388.12
2022-08-26T10:46:13.896Z,382.50
2022-08-26T10:47:14.012Z,315.00
2022-08-26T10:48:14.173Z,264.38
2022-08-26T10:49:14.287Z,253.12
2022-08-26T10:50:14.531Z,230.62
2022-08-26T10:51:14.513Z,230.62
2022-08-26T10:52:16.440Z,241.88
2022-08-26T10:53:14.785Z,292.50
2022-08-26T10:54:14.893Z,315.00
2022-08-26T10:55:15.103Z,315.00
2022-08-26T10:56:15.901Z,292.50
2022-08-26T10:57:15.202Z,258.75
2022-08-26T10:58:26.536Z,241.88
2022-08-26T10:59:16.571Z,247.50
2022-08-26T11:00:15.562Z,275.62
2022-08-26T11:01:15.737Z,281.25
2022-08-26T11:02:15.829Z,275.62
2022-08-26T11:03:22.012Z,230.62
2022-08-26T11:04:17.179Z,241.88
2022-08-26T11:05:16.141Z,253.12
2022-08-26T11:06:16.282Z,253.12
2022-08-26T11:07:16.362Z,241.88
2022-08-26T11:08:17.281Z,219.38
2022-08-26T11:09:16.598Z,219.38
2022-08-26T11:10:16.740Z,236.25
2022-08-26T11:11:16.880Z,253.12
2022-08-26T11:12:16.998Z,247.50
2022-08-26T11:13:17.151Z,247.50
2022-08-26T11:14:17.459Z,292.50
2022-08-26T11:15:18.418Z,303.75
2022-08-26T11:16:17.556Z,298.12
2022-08-26T11:17:17.678Z,309.38
2022-08-26T11:18:17.899Z,343.12
2022-08-26T11:19:17.958Z,393.75
2022-08-26T11:20:19.035Z,416.25
2022-08-26T11:21:18.160Z,450.00
2022-08-26T11:22:19.300Z,472.50
2022-08-26T11:23:18.689Z,438.75
2022-08-26T11:24:18.569Z,416.25
2022-08-26T11:25:18.709Z,416.25
2022-08-26T11:26:32.795Z,416.25
2022-08-26T11:27:19.947Z,399.38
2022-08-26T11:28:19.256Z,388.12
2022-08-26T11:29:19.278Z,416.25
2022-08-26T11:30:19.347Z,399.38
2022-08-26T11:31:19.479Z,388.12
2022-08-26T11:32:19.528Z,365.62
2022-08-26T11:33:19.988Z,376.88
2022-08-26T11:34:19.808Z,382.50
2022-08-26T11:35:19.931Z,360.00
2022-08-26T11:36:20.068Z,348.75
2022-08-26T11:38:20.585Z,393.75
2022-08-26T11:39:20.487Z,376.88
2022-08-26T11:40:20.725Z,405.00
2022-08-26T11:41:20.976Z,348.75
2022-08-26T11:42:20.855Z,360.00
2022-08-26T11:43:21.097Z,320.62
2022-08-26T11:44:21.280Z,286.88
2022-08-26T11:45:21.306Z,275.62
2022-08-26T11:46:21.370Z,264.38
2022-08-26T11:47:21.559Z,241.88
2022-08-26T11:48:21.686Z,213.75
2022-08-26T11:49:21.760Z,219.38
2022-08-26T11:50:21.905Z,230.62
2022-08-26T11:51:22.149Z,219.38
2022-08-26T11:52:22.151Z,253.12
2022-08-26T11:53:22.257Z,264.38
2022-08-26T11:54:35.064Z,258.75
2022-08-26T11:55:24.090Z,275.62
2022-08-26T11:56:22.696Z,286.88
2022-08-26T11:57:22.771Z,298.12
2022-08-26T11:58:22.884Z,320.62
2022-08-26T11:59:23.016Z,360.00
2022-08-26T12:00:23.557Z,399.38
2022-08-26T12:01:23.410Z,421.88
2022-08-26T12:02:23.394Z,416.25
2022-08-26T12:03:23.607Z,405.00
2022-08-26T12:04:23.662Z,405.00
2022-08-26T12:05:23.765Z,399.38
2022-08-26T12:06:24.052Z,393.75
2022-08-26T12:07:24.447Z,376.88
2022-08-26T12:08:24.141Z,326.25
2022-08-26T12:09:24.218Z,292.50
2022-08-26T12:10:24.326Z,292.50
2022-08-26T12:11:25.515Z,326.25
2022-08-26T12:12:24.563Z,337.50
2022-08-26T12:13:25.089Z,320.62
2022-08-26T12:14:24.813Z,326.25
2022-08-26T12:15:24.961Z,354.38
2022-08-26T12:16:25.133Z,337.50
2022-08-26T12:17:25.302Z,315.00
2022-08-26T12:18:29.590Z,298.12
2022-08-26T12:19:25.482Z,286.88
2022-08-26T12:20:25.592Z,298.12
2022-08-26T12:21:25.703Z,326.25
2022-08-26T12:22:25.852Z,388.12
2022-08-26T12:23:25.960Z,478.12
2022-08-26T12:24:26.246Z,601.88
2022-08-26T12:25:26.189Z,686.25
2022-08-26T12:26:26.280Z,697.50
2022-08-26T12:27:26.401Z,652.50
2022-08-26T12:28:26.501Z,590.62
2022-08-26T12:29:27.362Z,495.00
2022-08-26T12:30:26.693Z,410.62
2022-08-26T12:31:26.856Z,354.38
2022-08-26T12:32:27.052Z,337.50
2022-08-26T12:33:27.253Z,360.00
2022-08-26T12:34:27.251Z,365.62
2022-08-26T12:35:27.351Z,343.12
2022-08-26T12:36:27.452Z,326.25
2022-08-26T12:37:27.731Z,348.75
2022-08-26T12:38:27.738Z,382.50
2022-08-26T12:39:27.830Z,376.88
2022-08-26T12:40:28.036Z,354.38
2022-08-26T12:41:28.110Z,343.12
2022-08-26T12:42:28.349Z,326.25
2022-08-26T12:43:28.479Z,320.62
2022-08-26T12:44:28.451Z,326.25
2022-08-26T12:45:28.636Z,326.25
2022-08-26T12:46:28.732Z,331.88
2022-08-26T12:47:35.122Z,326.25
2022-08-26T12:48:30.122Z,298.12
2022-08-26T12:49:29.062Z,298.12
2022-08-26T12:50:29.174Z,309.38
2022-08-26T12:51:29.278Z,337.50
2022-08-26T12:52:29.462Z,388.12
2022-08-26T12:53:29.496Z,444.38